createdAt,value
2019-06-15T00:00:34.701Z,99597.14
2019-06-15T00:03:38.544Z,99602.14
2019-06-15T00:06:42.638Z,99578.89
2019-06-15T00:09:46.979Z,99547.30
2019-06-15T00:12:51.132Z,99500.97
2019-06-15T00:15:55.231Z,99471.64
2019-06-15T00:18:59.637Z,99513.48
2019-06-15T00:22:03.800Z,99529.19
2019-06-15T00:25:08.384Z,99517.97
2019-06-15T00:28:12.637Z,99540.20
2019-06-15T00:31:17.213Z,99572.77
2019-06-15T00:34:21.048Z,99558.58
2019-06-15T00:37:25.166Z,99529.48
2019-06-15T00:40:29.197Z,99526.22
2019-06-15T00:43:33.195Z,99521.61
2019-06-15T00:46:37.404Z,99527.09
2019-06-15T00:49:41.316Z,99522.48
2019-06-15T00:52:45.169Z,99527.70
2019-06-15T00:55:49.096Z,99522.96
2019-06-15T00:58:53.309Z,99511.27
2019-06-15T01:01:57.190Z,99511.27
2019-06-15T01:05:01.382Z,99510.00
2019-06-15T01:08:05.410Z,99510.00
2019-06-15T01:11:09.337Z,99500.05
2019-06-15T01:14:14.635Z,99496.60
2019-06-15T01:17:18.618Z,99500.30
2019-06-15T01:20:23.201Z,99502.17
2019-06-15T01:23:27.423Z,99490.61
2019-06-15T01:26:31.348Z,99496.38
2019-06-15T01:29:35.558Z,99496.50
2019-06-15T01:32:40.149Z,99495.63
2019-06-15T01:35:44.408Z,99486.94
2019-06-15T01:38:48.730Z,99500.38
2019-06-15T01:41:53.068Z,99494.89
2019-06-15T01:44:57.600Z,99494.77
2019-06-15T01:48:02.112Z,99483.94
2019-06-15T01:51:06.175Z,99483.81
2019-06-15T01:54:10.357Z,99475.98
2019-06-15T01:57:14.541Z,99477.84
2019-06-15T02:00:20.454Z,99478.01
2019-06-15T02:03:24.943Z,99489.22
2019-06-15T02:06:29.171Z,99486.73
2019-06-15T02:09:33.026Z,99489.03
2019-06-15T02:12:37.305Z,99484.09
2019-06-15T02:15:41.458Z,99473.94
2019-06-15T02:18:45.683Z,99467.06
2019-06-15T02:21:49.607Z,99467.06
2019-06-15T02:24:53.938Z,99472.20
2019-06-15T02:27:58.173Z,99459.44
2019-06-15T02:31:02.344Z,99454.09
2019-06-15T02:34:06.543Z,99466.97
2019-06-15T02:37:10.782Z,99466.97
2019-06-15T02:40:15.318Z,99453.66
2019-06-15T02:43:19.532Z,99456.90
2019-06-15T02:46:26.265Z,99452.20
2019-06-15T02:49:29.381Z,99455.59
2019-06-15T02:52:33.753Z,99460.44
2019-06-15T02:55:49.782Z,99459.56
2019-06-15T02:58:44.194Z,99458.85
2019-06-15T03:01:48.518Z,99460.59
2019-06-15T03:04:52.382Z,99461.30
2019-06-15T03:07:56.384Z,99464.05
2019-06-15T03:11:00.648Z,99466.53
2019-06-15T03:14:05.521Z,99475.48
2019-06-15T03:17:09.614Z,99475.48
2019-06-15T03:20:13.629Z,99470.50
2019-06-15T03:23:17.804Z,99480.33
2019-06-15T03:26:21.731Z,99480.33
2019-06-15T03:29:25.667Z,99490.39
2019-06-15T03:32:29.528Z,99499.00
2019-06-15T03:35:33.443Z,99498.77
2019-06-15T03:38:37.621Z,99499.13
2019-06-15T03:41:41.858Z,99500.88
2019-06-15T03:44:45.968Z,99513.16
2019-06-15T03:47:50.311Z,99518.90
2019-06-15T03:50:54.226Z,99518.90
2019-06-15T03:53:58.418Z,99520.24
2019-06-15T03:57:02.834Z,99520.24
2019-06-15T04:00:22.548Z,99536.88
2019-06-15T04:03:26.490Z,99541.36
2019-06-15T04:06:30.777Z,99529.95
2019-06-15T04:09:34.947Z,99552.55
2019-06-15T04:12:38.850Z,99548.22
2019-06-15T04:15:43.322Z,99559.52
2019-06-15T04:18:47.176Z,99562.84
2019-06-15T04:21:51.045Z,99562.84
2019-06-15T04:24:55.145Z,99556.14
2019-06-15T04:27:59.086Z,99564.45
2019-06-15T04:31:03.202Z,99571.06
2019-06-15T04:34:07.292Z,99567.68
2019-06-15T04:37:11.536Z,99571.75
2019-06-15T04:40:17.026Z,99586.31
2019-06-15T04:43:21.305Z,99591.88
2019-06-15T04:46:25.448Z,99611.48
2019-06-15T04:49:29.644Z,99620.23
2019-06-15T04:52:33.970Z,99628.30
2019-06-15T04:55:38.063Z,99628.30
2019-06-15T04:58:41.927Z,99642.02
2019-06-15T05:01:46.118Z,99645.52
2019-06-15T05:04:50.542Z,99643.89
2019-06-15T05:07:54.480Z,99641.97
2019-06-15T05:10:59.990Z,99647.72
2019-06-15T05:14:04.422Z,99648.31
2019-06-15T05:17:08.422Z,99655.98
2019-06-15T05:20:13.248Z,99658.02
2019-06-15T05:23:17.404Z,99657.27
2019-06-15T05:26:21.483Z,99668.97
2019-06-15T05:29:25.325Z,99685.41
2019-06-15T05:32:29.189Z,99674.50
2019-06-15T05:35:33.341Z,99678.42
2019-06-15T05:38:37.550Z,99668.64
2019-06-15T05:41:41.615Z,99680.59
2019-06-15T05:44:45.711Z,99669.97
2019-06-15T05:47:50.027Z,99669.61
2019-06-15T05:50:54.461Z,99668.56
2019-06-15T05:53:58.679Z,99673.50
2019-06-15T05:57:02.934Z,99683.05
2019-06-15T06:00:07.754Z,99694.80
2019-06-15T06:03:12.260Z,99702.72
2019-06-15T06:06:16.247Z,99715.17
2019-06-15T06:09:20.829Z,99724.88
2019-06-15T06:12:24.748Z,99725.30
2019-06-15T06:15:28.679Z,99736.72
2019-06-15T06:18:32.886Z,99742.48
2019-06-15T06:21:37.072Z,99733.42
2019-06-15T06:24:41.433Z,99726.44
2019-06-15T06:27:45.950Z,99726.10
2019-06-15T06:30:50.170Z,99718.09
2019-06-15T06:33:54.100Z,99718.39
2019-06-15T06:36:58.480Z,99739.70
2019-06-15T06:40:03.216Z,99745.16
2019-06-15T06:43:07.223Z,99748.59
2019-06-15T06:46:11.450Z,99767.83
2019-06-15T06:49:15.881Z,99777.22
2019-06-15T06:52:20.439Z,99787.42
2019-06-15T06:55:24.419Z,99793.14
2019-06-15T06:58:28.319Z,99797.48
2019-06-15T07:01:32.379Z,99798.73
2019-06-15T07:04:36.597Z,99808.20
2019-06-15T07:07:41.301Z,99822.03
2019-06-15T07:10:45.257Z,99823.13
2019-06-15T07:13:49.208Z,99834.97
2019-06-15T07:16:53.157Z,99834.11
2019-06-15T07:19:57.079Z,99866.98
2019-06-15T07:23:01.075Z,99854.66
2019-06-15T07:26:05.232Z,99852.98
2019-06-15T07:29:09.130Z,99861.71
2019-06-15T07:32:13.243Z,99857.88
2019-06-15T07:35:17.495Z,99859.89
2019-06-15T07:38:21.419Z,99842.58
2019-06-15T07:41:25.287Z,99849.28
2019-06-15T07:44:29.593Z,99840.12
2019-06-15T07:47:33.628Z,99843.14
2019-06-15T07:50:37.534Z,99853.50
2019-06-15T07:53:41.317Z,99864.23
2019-06-15T07:56:45.915Z,99869.89
2019-06-15T07:59:50.206Z,99888.64
2019-06-15T08:02:54.090Z,99889.45
2019-06-15T08:05:58.641Z,99908.92
2019-06-15T08:09:03.830Z,99911.36
2019-06-15T08:12:07.736Z,99920.74
2019-06-15T08:15:12.474Z,99922.39
2019-06-15T08:18:16.398Z,99932.03
2019-06-15T08:21:20.643Z,99942.06
2019-06-15T08:24:24.596Z,99948.41
2019-06-15T08:27:28.784Z,99951.45
2019-06-15T08:30:41.238Z,99960.16
2019-06-15T08:33:45.511Z,99962.73
2019-06-15T08:36:49.746Z,99965.59
2019-06-15T08:39:53.668Z,99970.77
2019-06-15T08:42:57.968Z,99976.47
2019-06-15T08:46:02.058Z,99993.02
2019-06-15T08:49:07.151Z,99996.88
2019-06-15T08:52:11.474Z,100010.09
2019-06-15T08:55:15.531Z,99994.24
2019-06-15T08:58:19.742Z,100012.02
2019-06-15T09:01:23.713Z,100012.05
2019-06-15T09:04:27.847Z,100014.88
2019-06-15T09:07:31.688Z,100017.17
2019-06-15T09:10:35.554Z,100019.00
2019-06-15T09:13:39.663Z,100020.19
2019-06-15T09:16:44.431Z,100030.81
2019-06-15T09:19:48.238Z,100035.68
2019-06-15T09:22:52.424Z,100030.45
2019-06-15T09:25:56.426Z,100034.92
2019-06-15T09:29:10.761Z,100031.72
2019-06-15T09:32:06.836Z,100042.52
2019-06-15T09:35:11.337Z,100037.38
2019-06-15T09:38:15.884Z,100047.23
2019-06-15T09:41:20.612Z,100048.79
2019-06-15T09:44:24.552Z,100060.21
2019-06-15T09:47:28.774Z,100063.84
2019-06-15T09:50:32.752Z,100070.09
2019-06-15T09:53:37.904Z,100080.70
2019-06-15T09:56:41.858Z,100070.81
2019-06-15T09:59:45.749Z,100074.95
2019-06-15T10:02:49.746Z,100066.51
2019-06-15T10:05:53.926Z,100082.28
2019-06-15T10:08:57.786Z,100087.27
2019-06-15T10:12:02.525Z,100087.02
2019-06-15T10:15:07.753Z,100098.97
2019-06-15T10:18:11.819Z,100104.55
2019-06-15T10:21:15.815Z,100101.70
2019-06-15T10:24:19.702Z,100117.09
2019-06-15T10:27:24.123Z,100118.80
2019-06-15T10:30:28.244Z,100121.81
2019-06-15T10:33:32.176Z,100115.19
2019-06-15T10:36:36.107Z,100119.45
2019-06-15T10:39:40.018Z,100127.48
2019-06-15T10:42:44.080Z,100127.90
2019-06-15T10:45:48.192Z,100129.20
2019-06-15T10:48:55.594Z,100137.42
2019-06-15T10:51:58.912Z,100140.84
2019-06-15T10:55:03.144Z,100144.49
2019-06-15T10:58:07.884Z,100140.99
2019-06-15T11:01:11.812Z,100142.33
2019-06-15T11:04:15.812Z,100144.34
2019-06-15T11:07:19.993Z,100148.48
2019-06-15T11:11:07.887Z,100135.03
2019-06-15T11:14:12.492Z,100145.13
2019-06-15T11:17:16.938Z,100138.82
2019-06-15T11:20:21.542Z,100131.73
2019-06-15T11:23:25.548Z,100126.35
2019-06-15T11:26:29.676Z,100137.28
2019-06-15T11:29:33.605Z,100128.25
2019-06-15T11:32:37.606Z,100120.09
2019-06-15T11:35:42.902Z,100119.19
2019-06-15T11:38:46.780Z,100125.98
2019-06-15T11:41:51.082Z,100145.23
2019-06-15T11:44:55.170Z,100147.86
2019-06-15T11:47:59.350Z,100150.13
2019-06-15T11:51:03.352Z,100146.64
2019-06-15T11:54:07.355Z,100141.09
2019-06-15T11:57:11.313Z,100146.64
2019-06-15T12:00:30.455Z,100140.20
2019-06-15T12:03:21.478Z,100135.67
2019-06-15T12:06:25.459Z,100132.92
2019-06-15T12:09:29.389Z,100139.50
2019-06-15T12:12:33.405Z,100143.17
2019-06-15T12:15:37.331Z,100144.20
2019-06-15T12:18:42.259Z,100149.66
2019-06-15T12:21:46.466Z,100153.23
2019-06-15T12:24:50.401Z,100154.98
2019-06-15T12:27:54.707Z,100158.67
2019-06-15T12:30:58.554Z,100145.75
2019-06-15T12:34:03.143Z,100142.13
2019-06-15T12:37:07.575Z,100145.94
2019-06-15T12:40:11.679Z,100153.20
2019-06-15T12:43:16.309Z,100150.09
2019-06-15T12:46:20.418Z,100142.98
2019-06-15T12:49:24.540Z,100143.00
2019-06-15T12:52:28.665Z,100141.43
2019-06-15T12:55:32.827Z,100144.89
2019-06-15T12:58:37.514Z,100144.18
2019-06-15T13:01:41.530Z,100132.23
2019-06-15T13:04:46.052Z,100135.21
2019-06-15T13:07:50.910Z,100140.76
2019-06-15T13:10:55.290Z,100143.17
2019-06-15T13:13:59.534Z,100122.84
2019-06-15T13:17:03.778Z,100133.77
2019-06-15T13:20:09.159Z,100127.89
2019-06-15T13:23:13.401Z,100132.78
2019-06-15T13:26:17.352Z,100122.01
2019-06-15T13:29:21.664Z,100129.82
2019-06-15T13:32:25.993Z,100126.51
2019-06-15T13:35:29.990Z,100126.20
2019-06-15T13:38:34.013Z,100133.77
2019-06-15T13:41:38.012Z,100126.78
2019-06-15T13:44:41.966Z,100120.33
2019-06-15T13:47:45.957Z,100120.66
2019-06-15T13:50:49.878Z,100111.03
2019-06-15T13:53:53.741Z,100113.52
2019-06-15T13:56:57.909Z,100122.63
2019-06-15T14:00:02.538Z,100111.71
2019-06-15T14:03:06.479Z,100110.16
2019-06-15T14:06:10.450Z,100124.06
2019-06-15T14:09:14.395Z,100112.44
2019-06-15T14:12:18.696Z,100118.92
2019-06-15T14:15:22.647Z,100114.97
2019-06-15T14:18:27.098Z,100125.43
2019-06-15T14:21:31.971Z,100118.87
2019-06-15T14:24:35.910Z,100120.91
2019-06-15T14:27:39.928Z,100125.36
2019-06-15T14:30:43.781Z,100127.73
2019-06-15T14:33:48.233Z,100120.60
2019-06-15T14:36:52.659Z,100122.59
2019-06-15T14:39:56.871Z,100125.22
2019-06-15T14:43:00.837Z,100122.76
2019-06-15T14:46:04.855Z,100124.33
2019-06-15T14:49:09.103Z,100117.05
2019-06-15T14:52:13.097Z,100115.53
2019-06-15T14:55:18.293Z,100118.56
2019-06-15T14:58:22.888Z,100122.01
2019-06-15T15:01:26.876Z,100117.84
2019-06-15T15:04:30.791Z,100124.73
2019-06-15T15:07:36.825Z,100126.85
2019-06-15T15:10:41.314Z,100123.39
2019-06-15T15:13:47.103Z,100120.59
2019-06-15T15:16:51.465Z,100115.37
2019-06-15T15:19:57.305Z,100109.52
2019-06-15T15:23:01.176Z,100105.30
2019-06-15T15:26:06.623Z,100108.94
2019-06-15T15:29:11.133Z,100100.06
2019-06-15T15:32:25.024Z,100102.12
2019-06-15T15:35:20.909Z,100095.06
2019-06-15T15:38:24.858Z,100097.92
2019-06-15T15:41:29.022Z,100100.70
2019-06-15T15:44:33.118Z,100087.90
2019-06-15T15:47:37.064Z,100089.75
2019-06-15T15:50:41.025Z,100094.33
2019-06-15T15:53:46.657Z,100078.94
2019-06-15T15:56:50.963Z,100079.48
2019-06-15T15:59:56.329Z,100088.31
2019-06-15T16:03:00.636Z,100085.81
2019-06-15T16:06:04.963Z,100083.15
2019-06-15T16:09:09.946Z,100085.76
2019-06-15T16:12:14.222Z,100084.72
2019-06-15T16:15:18.298Z,100082.67
2019-06-15T16:18:22.312Z,100076.77
2019-06-15T16:21:26.274Z,100081.24
2019-06-15T16:24:30.175Z,100081.07
2019-06-15T16:27:36.877Z,100087.53
2019-06-15T16:31:01.590Z,100074.47
2019-06-15T16:33:46.583Z,100081.69
2019-06-15T16:36:51.056Z,100081.05
2019-06-15T16:39:54.931Z,100086.08
2019-06-15T16:42:58.852Z,100079.47
2019-06-15T16:46:03.120Z,100087.28
2019-06-15T16:49:07.120Z,100087.28
2019-06-15T16:52:11.061Z,100082.25
2019-06-15T16:55:16.840Z,100075.50
2019-06-15T16:58:21.129Z,100068.92
2019-06-15T17:01:27.490Z,100072.75
2019-06-15T17:04:31.561Z,100079.70
2019-06-15T17:07:36.776Z,100076.23
2019-06-15T17:10:51.630Z,100066.50
2019-06-15T17:13:56.289Z,100062.86
2019-06-15T17:17:00.724Z,100061.13
2019-06-15T17:20:06.458Z,100062.70
2019-06-15T17:23:10.775Z,100068.25
2019-06-15T17:26:16.877Z,100068.61
2019-06-15T17:29:21.055Z,100063.86
2019-06-15T17:32:26.246Z,100061.28
2019-06-15T17:35:30.618Z,100062.64
2019-06-15T17:38:36.977Z,100067.86
2019-06-15T17:41:40.236Z,100078.59
2019-06-15T17:44:46.176Z,100090.92
2019-06-15T17:47:49.703Z,100091.58
2019-06-15T17:50:53.815Z,100097.97
2019-06-15T17:53:57.742Z,100104.20
2019-06-15T17:57:01.683Z,100102.61
2019-06-15T18:00:07.287Z,100087.18
2019-06-15T18:03:11.436Z,100093.89
2019-06-15T18:06:17.359Z,100094.85
2019-06-15T18:09:21.434Z,100095.53
2019-06-15T18:12:28.609Z,100091.34
2019-06-15T18:15:32.916Z,100084.93
2019-06-15T18:18:37.242Z,100077.26
2019-06-15T18:21:41.611Z,100075.48
2019-06-15T18:24:46.638Z,100080.30
2019-06-15T18:27:50.716Z,100083.33
2019-06-15T18:30:54.916Z,100082.88
2019-06-15T18:34:09.438Z,100084.81
2019-06-15T18:37:04.864Z,100089.66
2019-06-15T18:40:09.303Z,100086.38
2019-06-15T18:43:13.218Z,100086.82
2019-06-15T18:46:17.497Z,100096.11
2019-06-15T18:49:22.180Z,100099.80
2019-06-15T18:52:26.674Z,100090.55
2019-06-15T18:55:31.078Z,100096.99
2019-06-15T18:58:37.185Z,100104.16
2019-06-15T19:01:40.524Z,100106.93
2019-06-15T19:04:44.864Z,100105.55
2019-06-15T19:07:49.091Z,100109.36
2019-06-15T19:10:53.112Z,100109.25
2019-06-15T19:13:57.032Z,100108.44
2019-06-15T19:17:00.983Z,100120.37
2019-06-15T19:20:06.107Z,100124.02
2019-06-15T19:23:10.203Z,100125.77
2019-06-15T19:26:16.479Z,100121.10
2019-06-15T19:29:19.964Z,100122.44
2019-06-15T19:32:26.222Z,100122.72
2019-06-15T19:35:29.964Z,100127.21
2019-06-15T19:38:36.159Z,100130.12
2019-06-15T19:41:40.252Z,100125.75
2019-06-15T19:44:44.539Z,100136.75
2019-06-15T19:47:48.757Z,100143.11
2019-06-15T19:50:52.621Z,100150.47
2019-06-15T19:53:56.714Z,100158.13
2019-06-15T19:57:00.589Z,100159.00
2019-06-15T20:00:06.484Z,100167.00
2019-06-15T20:03:10.798Z,100170.89
2019-06-15T20:06:16.894Z,100180.30
2019-06-15T20:09:21.090Z,100183.48
2019-06-15T20:12:26.506Z,100186.94
2019-06-15T20:15:30.601Z,100191.12
2019-06-15T20:18:37.250Z,100196.58
2019-06-15T20:21:40.787Z,100205.40
2019-06-15T20:24:47.259Z,100214.92
2019-06-15T20:27:50.512Z,100215.61
2019-06-15T20:30:56.994Z,100219.78
2019-06-15T20:34:00.645Z,100215.93
2019-06-15T20:37:04.664Z,100215.12
2019-06-15T20:40:10.380Z,100226.33
2019-06-15T20:43:17.029Z,100225.38
2019-06-15T20:46:20.634Z,100216.30
2019-06-15T20:49:24.829Z,100210.75
2019-06-15T20:52:28.692Z,100215.88
2019-06-15T20:55:32.546Z,100220.31
2019-06-15T20:58:37.418Z,100221.80
2019-06-15T21:01:41.562Z,100226.33
2019-06-15T21:04:45.423Z,100222.12
2019-06-15T21:07:49.292Z,100218.27
2019-06-15T21:10:53.439Z,100225.75
2019-06-15T21:13:57.689Z,100240.13
2019-06-15T21:17:01.689Z,100255.36
2019-06-15T21:20:06.996Z,100251.86
2019-06-15T21:23:10.853Z,100250.11
2019-06-15T21:26:16.374Z,100249.88
2019-06-15T21:29:20.820Z,100270.09
2019-06-15T21:32:26.221Z,100266.98
2019-06-15T21:35:43.008Z,100288.19
2019-06-15T21:38:36.622Z,100285.67
2019-06-15T21:41:40.751Z,100291.28
2019-06-15T21:44:46.810Z,100284.08
2019-06-15T21:47:50.188Z,100277.07
2019-06-15T21:50:56.944Z,100281.80
2019-06-15T21:54:00.633Z,100272.84
2019-06-15T21:57:07.095Z,100281.43
2019-06-15T22:00:17.204Z,100297.55
2019-06-15T22:03:20.280Z,100305.25
2019-06-15T22:06:26.276Z,100314.75
2019-06-15T22:09:30.739Z,100317.84
2019-06-15T22:12:36.544Z,100320.29
2019-06-15T22:15:40.910Z,100317.42
2019-06-15T22:18:47.401Z,100305.69
2019-06-15T22:21:50.877Z,100301.34
2019-06-15T22:24:56.035Z,100300.20
2019-06-15T22:28:00.034Z,100305.58
2019-06-15T22:31:06.751Z,100317.31
2019-06-15T22:34:10.068Z,100341.36
2019-06-15T22:37:17.200Z,100348.11
2019-06-15T22:40:20.279Z,100343.11
2019-06-15T22:43:24.215Z,100369.78
2019-06-15T22:46:28.065Z,100372.64
2019-06-15T22:49:31.951Z,100385.98
2019-06-15T22:52:36.441Z,100394.09
2019-06-15T22:55:40.912Z,100397.21
2019-06-15T22:58:46.161Z,100395.69
2019-06-15T23:01:50.584Z,100394.70
2019-06-15T23:04:56.630Z,100400.72
2019-06-15T23:08:01.270Z,100397.83
2019-06-15T23:11:06.811Z,100388.98
2019-06-15T23:14:10.857Z,100395.45
2019-06-15T23:17:15.061Z,100395.69
2019-06-15T23:20:19.313Z,100396.56
2019-06-15T23:23:23.600Z,100393.70
2019-06-15T23:26:27.524Z,100395.69
2019-06-15T23:29:31.380Z,100397.92
2019-06-15T23:32:35.565Z,100393.31
2019-06-15T23:35:46.549Z,100393.20
2019-06-15T23:38:50.457Z,100388.70
2019-06-15T23:41:56.323Z,100400.55
2019-06-15T23:45:00.196Z,100398.80
2019-06-15T23:48:04.472Z,100401.88
2019-06-15T23:51:08.305Z,100397.75
2019-06-15T23:54:12.182Z,100399.98
2019-06-15T23:57:16.074Z,100404.59
